Leader, Canada
Current Conditions -  °F | °C
As of 6:00 PM on Monday 24 Nov 2014 (Local Time) from CYKY Reporting Station
Scattered Clouds Scattered Clouds  
Wind Chill: 27°   Ceiling: Unl
Heat Index: 27°   Visibility: 15mi
Dew Point: 25°   Wind: 2mph
Humidity: 93%   Direction: 260°W
Pressure: 29.94"   Gusts: NA
Location:  50.89°N, 109.54°W
Report Text: CYKY 250000Z 26002KT 15SM FEW040 SCT230 M03/M04 A2994 RMK SC1CI3 SC TR SLP177
Loading
Personal Weather Stations






























Interactive Weather Map New forecast layout! Learn more

10-Day Weather Forecast

Advertisements
Track Severe Weather on mobile